Time;durP1;ratioP1;P1;durP2;ratioP2;P2;SDS_P1;SDS_P2;PMS_P1;PMS_P2;Temp;Humidity;BMP_temperature;BMP_pressure;BME280_temperature;BME280_humidity;BME280_pressure;Samples;Min_cycle;Max_cycle;Signal;HPM_P1;HPM_P2
2022/04/07 00:00:47;;;;;;;24.40;15.73;;;8.10;99.90;;;;;;5133159;27;20293;-67
2022/04/07 00:03:14;;;;;;;23.47;14.87;;;8.10;99.90;;;;;;5133146;27;20242;-67
2022/04/07 00:05:41;;;;;;;20.80;14.13;;;8.10;99.90;;;;;;5133547;27;20562;-67
2022/04/07 00:08:08;;;;;;;24.90;14.20;;;8.00;99.90;;;;;;5133181;27;20289;-67
2022/04/07 00:10:35;;;;;;;21.10;14.67;;;8.00;99.90;;;;;;5133445;27;20249;-66
2022/04/07 00:13:02;;;;;;;21.60;13.27;;;8.00;99.90;;;;;;5132982;27;20289;-67
2022/04/07 00:15:30;;;;;;;20.13;13.47;;;8.00;99.90;;;;;;5133247;27;20339;-68
2022/04/07 00:17:58;;;;;;;20.07;13.20;;;8.00;99.90;;;;;;5133210;27;20241;-67
2022/04/07 00:20:24;;;;;;;21.43;13.23;;;7.90;99.90;;;;;;5133247;27;20287;-68
2022/04/07 00:22:52;;;;;;;20.97;13.30;;;7.90;99.90;;;;;;5133333;27;20290;-66
2022/04/07 00:25:19;;;;;;;20.33;13.37;;;7.90;99.90;;;;;;5133096;27;20199;-68
2022/04/07 00:27:46;;;;;;;19.60;12.77;;;7.90;99.90;;;;;;5132922;27;20246;-67
2022/04/07 00:30:15;;;;;;;23.43;14.80;;;7.90;99.90;;;;;;5132919;27;20727;-66
2022/04/07 00:32:44;;;;;;;22.33;14.67;;;7.90;99.90;;;;;;5133032;27;20634;-67
2022/04/07 00:35:12;;;;;;;19.80;13.27;;;7.80;99.90;;;;;;5132654;27;20277;-67
2022/04/07 00:37:39;;;;;;;19.60;13.27;;;7.80;99.90;;;;;;5133165;27;20265;-67
2022/04/07 00:40:08;;;;;;;19.20;12.80;;;7.70;99.90;;;;;;5132720;28;20289;-67
2022/04/07 00:42:43;;;;;;;21.57;13.33;;;7.70;99.90;;;;;;5132891;28;20290;-67
2022/04/07 00:45:10;;;;;;;20.17;12.37;;;7.70;99.90;;;;;;5132482;28;20226;-67
2022/04/07 00:47:37;;;;;;;19.77;11.50;;;7.70;99.90;;;;;;5132640;27;20241;-67
2022/04/07 00:50:06;;;;;;;20.07;12.77;;;7.70;99.90;;;;;;5132596;28;20632;-67
2022/04/07 00:52:34;;;;;;;18.43;11.80;;;7.70;99.90;;;;;;5132567;27;20238;-65
2022/04/07 00:55:02;;;;;;;17.30;11.80;;;7.70;99.90;;;;;;5132639;28;20236;-67
2022/04/07 00:57:29;;;;;;;19.83;12.13;;;7.70;99.90;;;;;;5132787;28;20631;-67
2022/04/07 00:59:57;;;;;;;16.63;11.37;;;7.70;99.90;;;;;;5132359;27;20258;-67
2022/04/07 01:02:23;;;;;;;19.67;11.77;;;7.70;99.90;;;;;;5132748;28;20638;-67
2022/04/07 01:04:50;;;;;;;20.23;12.93;;;7.60;99.90;;;;;;5132528;27;20247;-66
2022/04/07 01:07:20;;;;;;;18.90;12.23;;;7.60;99.90;;;;;;5132583;28;20270;-66
2022/04/07 01:09:47;;;;;;;20.33;13.50;;;7.60;99.90;;;;;;5132327;27;20294;-68
2022/04/07 01:12:14;;;;;;;27.60;16.77;;;7.60;99.90;;;;;;5132691;27;20199;-66
2022/04/07 01:14:53;;;;;;;32.20;18.83;;;7.40;99.90;;;;;;5132185;28;20245;-66
2022/04/07 01:17:20;;;;;;;28.67;17.43;;;7.30;99.90;;;;;;5132611;28;20218;-66
2022/04/07 01:19:47;;;;;;;32.37;20.10;;;7.20;99.90;;;;;;5132051;28;20223;-65
2022/04/07 01:22:14;;;;;;;26.47;17.63;;;7.10;99.90;;;;;;5132683;27;20242;-66
2022/04/07 01:24:43;;;;;;;27.97;17.10;;;7.00;99.90;;;;;;5132191;28;20254;-67
2022/04/07 01:27:11;;;;;;;27.33;16.60;;;7.00;99.90;;;;;;5132480;28;20612;-66
2022/04/07 01:29:38;;;;;;;24.33;16.30;;;7.00;99.90;;;;;;5132410;28;20241;-66
2022/04/07 01:32:10;;;;;;;26.77;17.33;;;6.90;99.90;;;;;;5132060;28;20238;-66
2022/04/07 01:34:38;;;;;;;25.63;16.30;;;6.80;99.90;;;;;;5132231;27;20265;-66
2022/04/07 01:37:06;;;;;;;24.67;16.10;;;6.70;99.90;;;;;;5132213;28;20302;-66
2022/04/07 01:39:34;;;;;;;31.80;19.23;;;6.70;99.90;;;;;;5132318;28;20686;-67
2022/04/07 01:42:03;;;;;;;38.40;22.03;;;6.70;99.90;;;;;;5132101;27;20245;-66
2022/04/07 01:44:31;;;;;;;35.97;21.27;;;6.70;99.90;;;;;;5135419;27;20238;-66
2022/04/07 01:46:58;;;;;;;30.53;19.43;;;6.60;99.90;;;;;;5135563;27;20287;-67
2022/04/07 01:49:26;;;;;;;33.83;20.07;;;6.60;99.90;;;;;;5136060;27;20285;-66
2022/04/07 01:51:53;;;;;;;30.73;17.50;;;6.60;99.90;;;;;;5135609;27;20339;-66
2022/04/07 01:54:21;;;;;;;26.30;16.67;;;6.60;99.90;;;;;;5135714;27;20289;-65
2022/04/07 01:56:49;;;;;;;23.77;15.00;;;6.60;99.90;;;;;;5135784;27;20673;-66
2022/04/07 01:59:19;;;;;;;19.83;12.87;;;6.60;99.90;;;;;;5135621;27;20258;-66
2022/04/07 02:01:46;;;;;;;22.63;13.60;;;6.60;99.90;;;;;;5135412;27;20190;-66
2022/04/07 02:04:13;;;;;;;22.17;12.40;;;6.60;99.90;;;;;;5135786;27;20570;-66
2022/04/07 02:06:40;;;;;;;20.40;12.93;;;6.60;99.90;;;;;;5135634;27;20230;-65
2022/04/07 02:09:07;;;;;;;25.27;14.90;;;6.70;99.90;;;;;;5135982;27;20250;-67
2022/04/07 02:11:35;;;;;;;28.50;16.43;;;6.60;99.90;;;;;;5135307;27;20289;-67
2022/04/07 02:14:02;;;;;;;29.87;17.90;;;6.70;99.90;;;;;;5135534;27;20658;-66
2022/04/07 02:16:31;;;;;;;28.40;17.37;;;6.60;99.90;;;;;;5135593;27;20226;-66
2022/04/07 02:18:58;;;;;;;25.47;16.00;;;6.50;99.90;;;;;;5135367;27;20199;-66
2022/04/07 02:21:24;;;;;;;27.10;15.30;;;6.60;99.90;;;;;;5135464;27;20203;-66
2022/04/07 02:23:52;;;;;;;25.73;14.37;;;6.60;99.90;;;;;;5134947;27;20238;-66
2022/04/07 02:26:19;;;;;;;22.67;13.23;;;6.60;99.90;;;;;;5135451;27;20206;-66
2022/04/07 02:28:46;;;;;;;20.17;12.13;;;6.60;99.90;;;;;;5135012;27;20260;-66
2022/04/07 02:31:14;;;;;;;20.40;12.40;;;6.60;99.90;;;;;;5135038;27;20234;-66
2022/04/07 02:33:42;;;;;;;20.47;12.37;;;6.60;99.90;;;;;;5134819;27;20663;-67
2022/04/07 02:36:10;;;;;;;18.77;11.60;;;6.70;99.90;;;;;;5134673;27;20266;-65
2022/04/07 02:38:37;;;;;;;19.50;12.10;;;6.70;99.90;;;;;;5134725;27;20215;-67
2022/04/07 02:41:05;;;;;;;22.60;12.50;;;6.70;99.90;;;;;;5134818;27;20309;-65
2022/04/07 02:43:32;;;;;;;21.87;12.27;;;6.70;99.90;;;;;;5134880;27;20245;-66
2022/04/07 02:45:59;;;;;;;21.03;11.63;;;6.70;99.90;;;;;;5134832;27;20721;-66
2022/04/07 02:48:25;;;;;;;19.73;11.83;;;6.80;99.90;;;;;;5134941;27;20261;-66
2022/04/07 02:50:54;;;;;;;20.00;11.23;;;6.80;99.90;;;;;;5134849;27;20207;-65
2022/04/07 02:53:21;;;;;;;18.77;10.97;;;6.80;99.90;;;;;;5134954;27;20654;-65
2022/04/07 02:55:47;;;;;;;21.00;12.37;;;6.80;99.90;;;;;;5134670;27;20631;-67
2022/04/07 02:58:14;;;;;;;18.40;11.17;;;6.80;99.90;;;;;;5134741;27;20207;-66
2022/04/07 03:00:41;;;;;;;18.33;11.00;;;6.80;99.90;;;;;;5134467;27;20310;-67
2022/04/07 03:03:08;;;;;;;20.10;11.87;;;6.90;99.90;;;;;;5134296;27;20290;-67
2022/04/07 03:05:35;;;;;;;21.77;11.97;;;6.90;99.90;;;;;;5134108;27;20289;-66
2022/04/07 03:08:04;;;;;;;18.30;11.20;;;6.90;99.90;;;;;;5134709;27;20621;-66
2022/04/07 03:10:31;;;;;;;20.00;11.77;;;7.00;99.90;;;;;;5134194;27;20199;-66
2022/04/07 03:12:58;;;;;;;20.73;11.63;;;7.00;99.90;;;;;;5134414;27;20645;-66
2022/04/07 03:15:25;;;;;;;21.17;11.73;;;7.00;99.90;;;;;;5134472;27;20286;-66
2022/04/07 03:17:51;;;;;;;18.67;11.20;;;7.00;99.90;;;;;;5133853;27;20245;-66
2022/04/07 03:20:18;;;;;;;17.80;11.27;;;7.00;99.90;;;;;;5133899;27;20305;-66
2022/04/07 03:22:45;;;;;;;17.47;11.07;;;7.00;99.90;;;;;;5133813;27;20249;-66
2022/04/07 03:25:13;;;;;;;20.37;10.87;;;7.00;99.90;;;;;;5133935;27;20305;-66
2022/04/07 03:27:40;;;;;;;17.37;10.63;;;7.00;99.90;;;;;;5134072;27;20249;-66
2022/04/07 03:30:09;;;;;;;19.30;11.30;;;7.00;99.90;;;;;;5133811;27;20289;-66
2022/04/07 03:32:35;;;;;;;17.57;11.50;;;7.00;99.90;;;;;;5133666;27;20238;-66
2022/04/07 03:35:02;;;;;;;19.17;11.27;;;7.00;99.90;;;;;;5133633;27;20326;-68
2022/04/07 03:37:29;;;;;;;21.07;11.80;;;7.10;99.90;;;;;;5133848;27;20210;-68
2022/04/07 03:39:56;;;;;;;19.87;12.30;;;7.00;99.90;;;;;;5133927;27;20713;-67
2022/04/07 03:42:24;;;;;;;20.37;11.63;;;7.10;99.90;;;;;;5133847;27;20653;-66
2022/04/07 03:44:51;;;;;;;19.00;11.47;;;7.10;99.90;;;;;;5133423;27;20301;-67
2022/04/07 03:47:18;;;;;;;17.47;11.73;;;7.10;99.90;;;;;;5133749;27;20289;-66
2022/04/07 03:49:45;;;;;;;18.53;11.17;;;7.10;99.90;;;;;;5133601;27;20234;-67
2022/04/07 03:52:12;;;;;;;18.17;11.37;;;7.10;99.90;;;;;;5133750;27;20236;-67
2022/04/07 03:54:39;;;;;;;19.10;11.60;;;7.10;99.90;;;;;;5133078;27;20238;-66
2022/04/07 03:57:06;;;;;;;20.30;12.17;;;7.10;99.90;;;;;;5133372;27;20214;-66
2022/04/07 03:59:38;;;;;;;22.03;13.17;;;7.20;99.90;;;;;;5133569;27;20241;-66
2022/04/07 04:02:06;;;;;;;22.77;12.67;;;7.20;99.90;;;;;;5133587;27;20183;-66
2022/04/07 04:04:33;;;;;;;22.33;14.07;;;7.20;99.90;;;;;;5133317;27;20289;-67
2022/04/07 04:07:01;;;;;;;26.70;14.13;;;7.20;99.90;;;;;;5132990;27;20209;-66
2022/04/07 04:09:28;;;;;;;22.77;13.77;;;7.30;99.90;;;;;;5133139;27;20297;-66
2022/04/07 04:11:54;;;;;;;22.63;14.87;;;7.30;99.90;;;;;;5132989;27;20294;-66
2022/04/07 04:14:21;;;;;;;24.10;14.60;;;7.30;99.90;;;;;;5133260;27;20313;-66
2022/04/07 04:16:50;;;;;;;22.43;14.00;;;7.40;99.90;;;;;;5132968;27;20294;-66
2022/04/07 04:19:17;;;;;;;23.10;14.07;;;7.40;99.90;;;;;;5133155;27;20240;-67
2022/04/07 04:21:43;;;;;;;21.57;13.40;;;7.50;99.90;;;;;;5132689;27;20305;-67
2022/04/07 04:24:11;;;;;;;22.27;13.33;;;7.50;99.90;;;;;;5133169;27;20297;-66
2022/04/07 04:26:38;;;;;;;23.27;12.87;;;7.50;99.90;;;;;;5132979;27;20206;-67
2022/04/07 04:29:05;;;;;;;22.93;12.50;;;7.60;99.90;;;;;;5132974;27;20234;-66
2022/04/07 04:31:32;;;;;;;31.10;16.60;;;7.70;99.90;;;;;;5132697;27;20230;-67
2022/04/07 04:34:00;;;;;;;31.43;18.97;;;7.70;99.90;;;;;;5132747;27;20222;-66
2022/04/07 04:36:28;;;;;;;32.97;20.37;;;7.70;99.90;;;;;;5132408;27;20622;-66
2022/04/07 04:38:55;;;;;;;28.97;17.90;;;7.80;99.90;;;;;;5132586;28;20209;-66
2022/04/07 04:41:22;;;;;;;30.43;17.50;;;7.90;99.90;;;;;;5132667;28;20639;-67
2022/04/07 04:43:49;;;;;;;31.97;17.93;;;7.90;99.90;;;;;;5132811;28;20436;-67
2022/04/07 04:46:16;;;;;;;31.97;19.33;;;8.00;99.90;;;;;;5132917;27;20698;-66
2022/04/07 04:48:43;;;;;;;36.17;22.23;;;8.00;99.90;;;;;;5132821;28;20198;-67
2022/04/07 04:51:11;;;;;;;43.87;25.80;;;8.10;99.90;;;;;;5132651;28;20241;-66
2022/04/07 04:53:38;;;;;;;39.50;24.10;;;8.10;99.90;;;;;;5132611;28;20404;-68
2022/04/07 04:56:06;;;;;;;35.77;21.70;;;8.10;99.90;;;;;;5132397;28;20290;-66
2022/04/07 04:58:33;;;;;;;31.20;19.07;;;8.20;99.90;;;;;;5132274;27;20311;-66
2022/04/07 05:01:00;;;;;;;29.40;17.40;;;8.30;99.90;;;;;;5131857;28;20743;-66
2022/04/07 05:03:27;;;;;;;26.63;16.17;;;8.30;99.90;;;;;;5132609;28;20635;-67
2022/04/07 05:05:54;;;;;;;26.13;15.27;;;8.40;99.90;;;;;;5132373;28;20238;-67
2022/04/07 05:08:22;;;;;;;24.10;14.37;;;8.40;99.90;;;;;;5132395;28;20658;-67
2022/04/07 05:10:49;;;;;;;23.40;13.47;;;8.50;99.90;;;;;;5132626;28;20659;-67
2022/04/07 05:13:16;;;;;;;20.30;12.53;;;8.50;99.90;;;;;;5132489;28;20633;-66
2022/04/07 05:15:43;;;;;;;16.90;10.67;;;8.60;99.90;;;;;;5132638;28;20231;-67
2022/04/07 05:18:10;;;;;;;22.03;11.60;;;8.60;99.90;;;;;;5133458;27;20234;-66
2022/04/07 05:20:37;;;;;;;19.73;12.20;;;8.70;99.90;;;;;;5136329;27;20306;-67
2022/04/07 05:23:04;;;;;;;18.27;11.60;;;8.80;99.90;;;;;;5136297;27;20236;-67
2022/04/07 05:25:33;;;;;;;20.03;11.90;;;8.80;99.90;;;;;;5136435;27;20234;-66
2022/04/07 05:28:00;;;;;;;21.07;11.80;;;8.90;99.90;;;;;;5136264;27;20245;-67
2022/04/07 05:30:27;;;;;;;18.93;11.43;;;9.00;99.90;;;;;;5136290;27;20627;-66
2022/04/07 05:32:54;;;;;;;16.07;9.80;;;9.10;99.90;;;;;;5136239;27;20254;-68
2022/04/07 05:35:21;;;;;;;20.30;11.07;;;9.10;99.90;;;;;;5135797;27;20277;-66
2022/04/07 05:37:48;;;;;;;15.10;9.97;;;9.20;99.90;;;;;;5136438;27;20604;-66
2022/04/07 05:40:15;;;;;;;16.93;10.13;;;9.30;99.90;;;;;;5135740;27;20262;-67
2022/04/07 05:42:43;;;;;;;19.27;10.53;;;9.40;99.90;;;;;;5136142;27;20638;-67
2022/04/07 05:45:10;;;;;;;15.60;9.83;;;9.50;99.90;;;;;;5135948;27;20242;-67
2022/04/07 05:47:41;;;;;;;15.93;9.77;;;9.60;99.90;;;;;;5136133;27;20256;-67
2022/04/07 05:50:09;;;;;;;16.33;10.20;;;9.70;99.90;;;;;;5140620;27;20709;-65
2022/04/07 05:52:36;;;;;;;32.60;19.10;;;9.80;99.90;;;;;;5135998;27;20289;-67
2022/04/07 05:55:03;;;;;;;19.07;11.23;;;9.90;99.90;;;;;;5135812;27;20629;-66
2022/04/07 05:57:31;;;;;;;19.63;10.27;;;10.00;99.90;;;;;;5135442;27;20242;-67
2022/04/07 06:00:05;;;;;;;13.87;9.20;;;10.10;99.90;;;;;;5135433;27;20213;-67
2022/04/07 06:02:32;;;;;;;17.37;9.67;;;10.20;99.90;;;;;;5135514;27;20210;-66
2022/04/07 06:04:59;;;;;;;14.07;8.47;;;10.30;99.90;;;;;;5135639;27;20343;-66
2022/04/07 06:07:26;;;;;;;16.80;9.10;;;10.40;99.90;;;;;;5135520;27;20622;-66
2022/04/07 06:09:53;;;;;;;14.70;8.07;;;10.50;99.90;;;;;;5135536;27;20638;-65
2022/04/07 06:12:20;;;;;;;14.93;9.40;;;10.60;99.90;;;;;;5135260;27;20230;-66
2022/04/07 06:14:46;;;;;;;16.17;9.30;;;10.70;99.90;;;;;;5135300;27;20295;-67
2022/04/07 06:17:15;;;;;;;15.90;9.50;;;10.80;99.90;;;;;;5135241;27;20241;-67
2022/04/07 06:19:42;;;;;;;15.73;9.37;;;10.90;99.90;;;;;;5135388;27;20238;-67
2022/04/07 06:22:11;;;;;;;14.57;8.80;;;11.00;99.90;;;;;;5135221;27;20590;-65
2022/04/07 06:24:38;;;;;;;16.70;8.60;;;11.10;99.90;;;;;;5135267;27;20584;-67
2022/04/07 06:27:05;;;;;;;13.10;8.67;;;11.20;99.90;;;;;;5134918;27;20237;-65
2022/04/07 06:29:32;;;;;;;12.07;7.90;;;11.30;99.90;;;;;;5134647;27;20294;-67
2022/04/07 06:31:59;;;;;;;17.47;9.07;;;11.40;99.90;;;;;;5134907;27;20249;-67
2022/04/07 06:34:27;;;;;;;12.63;7.70;;;11.50;99.90;;;;;;5134997;27;20729;-67
2022/04/07 06:36:54;;;;;;;13.53;7.40;;;11.60;99.90;;;;;;5134755;27;20266;-67
2022/04/07 06:39:21;;;;;;;11.87;7.17;;;11.70;99.90;;;;;;5134725;27;20245;-66
2022/04/07 06:41:47;;;;;;;10.07;6.23;;;11.80;99.90;;;;;;5134672;27;20257;-66
2022/04/07 06:44:15;;;;;;;10.63;6.23;;;11.90;99.90;;;;;;5134896;27;20731;-67
2022/04/07 06:46:41;;;;;;;9.90;6.00;;;12.00;99.90;;;;;;5134970;27;20256;-66
2022/04/07 06:49:08;;;;;;;9.33;5.60;;;12.10;99.90;;;;;;5134448;27;20276;-65
2022/04/07 06:51:37;;;;;;;7.47;5.67;;;12.20;99.90;;;;;;5134471;27;20290;-67
2022/04/07 06:54:04;;;;;;;7.30;4.93;;;12.30;99.90;;;;;;5134384;27;20309;-67
2022/04/07 06:56:30;;;;;;;6.93;4.87;;;12.40;99.90;;;;;;5134650;27;20602;-66
2022/04/07 06:58:57;;;;;;;7.63;4.87;;;12.50;99.90;;;;;;5134591;27;20289;-66
2022/04/07 07:01:24;;;;;;;6.53;4.70;;;12.60;99.90;;;;;;5134092;27;20309;-67
2022/04/07 07:03:51;;;;;;;5.50;4.13;;;12.70;99.90;;;;;;5134582;27;20206;-66
2022/04/07 07:06:18;;;;;;;6.37;4.10;;;12.80;99.90;;;;;;5134355;27;20641;-66
2022/04/07 07:08:46;;;;;;;7.77;4.43;;;12.90;99.90;;;;;;5134382;27;20285;-67
2022/04/07 07:11:14;;;;;;;5.70;4.30;;;13.00;99.90;;;;;;5133922;27;20260;-67
2022/04/07 07:13:41;;;;;;;6.57;4.30;;;13.10;99.90;;;;;;5134334;27;20202;-67
2022/04/07 07:16:08;;;;;;;6.00;4.00;;;13.20;99.90;;;;;;5134132;27;20252;-67
2022/04/07 07:18:35;;;;;;;4.50;3.83;;;13.30;99.90;;;;;;5134252;27;20253;-66
2022/04/07 07:21:01;;;;;;;5.70;3.90;;;13.30;99.90;;;;;;5133731;27;20258;-67
2022/04/07 07:23:28;;;;;;;4.27;3.33;;;13.50;99.90;;;;;;5134205;27;20639;-67
2022/04/07 07:25:57;;;;;;;4.20;3.40;;;13.50;99.90;;;;;;5134202;27;20309;-67
2022/04/07 07:28:23;;;;;;;5.03;3.30;;;13.60;99.90;;;;;;5133760;27;20234;-69
2022/04/07 07:30:50;;;;;;;4.47;3.13;;;13.70;99.90;;;;;;5133961;27;20249;-67
2022/04/07 07:33:17;;;;;;;5.23;3.30;;;13.80;99.90;;;;;;5133312;27;20254;-67
2022/04/07 07:35:46;;;;;;;5.03;3.30;;;13.90;99.90;;;;;;5133866;27;20231;-68
2022/04/07 07:38:13;;;;;;;4.17;3.07;;;14.10;99.90;;;;;;5133721;27;20203;-67
2022/04/07 07:40:40;;;;;;;6.07;3.60;;;14.20;99.90;;;;;;5132782;27;20245;-69
2022/04/07 07:43:08;;;;;;;6.90;3.53;;;14.20;99.90;;;;;;5133386;27;20279;-67
2022/04/07 07:45:36;;;;;;;5.83;3.93;;;14.30;99.90;;;;;;5133758;27;20286;-66
2022/04/07 07:48:03;;;;;;;4.87;3.37;;;14.40;99.90;;;;;;5133492;27;20663;-67
2022/04/07 07:50:30;;;;;;;4.93;3.63;;;14.40;99.90;;;;;;5133768;27;20242;-67
2022/04/07 07:52:57;;;;;;;3.50;2.73;;;14.50;99.90;;;;;;5133212;27;20234;-67
2022/04/07 07:55:24;;;;;;;4.23;3.23;;;14.60;99.90;;;;;;5133344;27;20250;-67
2022/04/07 07:57:50;;;;;;;4.87;3.00;;;14.60;99.90;;;;;;5133543;27;20238;-66
2022/04/07 08:00:19;;;;;;;5.10;3.10;;;14.70;99.90;;;;;;5133276;27;20246;-67
2022/04/07 08:02:46;;;;;;;5.20;2.83;;;14.80;99.90;;;;;;5133219;27;20258;-67
2022/04/07 08:05:13;;;;;;;4.80;3.10;;;14.80;99.90;;;;;;5133032;27;20241;-67
2022/04/07 08:07:41;;;;;;;7.23;3.47;;;14.90;99.90;;;;;;5133520;27;20689;-68
2022/04/07 08:10:09;;;;;;;4.77;3.33;;;15.00;99.90;;;;;;5133248;27;20285;-66
2022/04/07 08:12:36;;;;;;;3.73;3.00;;;15.00;99.90;;;;;;5133118;27;20234;-67
2022/04/07 08:15:04;;;;;;;5.00;3.37;;;15.10;99.90;;;;;;5133214;27;20626;-67
2022/04/07 08:17:34;;;;;;;6.07;3.20;;;15.20;99.90;;;;;;5133280;27;20207;-67
2022/04/07 08:20:02;;;;;;;5.10;3.30;;;15.20;99.90;;;;;;5132974;27;20205;-67
2022/04/07 08:22:29;;;;;;;4.43;3.37;;;15.20;99.90;;;;;;5133079;27;20345;-67
2022/04/07 08:24:56;;;;;;;5.50;3.17;;;15.40;99.90;;;;;;5132735;27;20228;-67
2022/04/07 08:27:24;;;;;;;6.20;4.00;;;15.50;99.90;;;;;;5132976;27;20557;-67
2022/04/07 08:29:51;;;;;;;6.23;3.50;;;15.60;99.90;;;;;;5132657;27;20203;-67
2022/04/07 08:32:18;;;;;;;5.07;3.30;;;15.70;99.90;;;;;;5132975;27;20305;-68
2022/04/07 08:34:47;;;;;;;4.87;3.43;;;15.80;99.90;;;;;;5133194;27;20238;-66
2022/04/07 08:37:14;;;;;;;6.10;3.70;;;15.90;99.90;;;;;;5132798;27;20191;-67
2022/04/07 08:39:41;;;;;;;6.03;3.63;;;15.90;99.90;;;;;;5132637;27;20210;-67
2022/04/07 08:42:08;;;;;;;7.57;3.97;;;16.00;99.90;;;;;;5132490;27;20305;-68
2022/04/07 08:44:35;;;;;;;6.03;3.40;;;16.00;99.90;;;;;;5132944;28;20241;-66
2022/04/07 08:47:02;;;;;;;6.93;3.30;;;16.10;99.90;;;;;;5132784;28;20238;-67
2022/04/07 08:49:32;;;;;;;5.00;3.93;;;16.20;99.90;;;;;;5132942;27;20279;-67
2022/04/07 08:52:00;;;;;;;5.80;3.77;;;16.20;99.90;;;;;;5133627;27;20195;-66
2022/04/07 08:54:27;;;;;;;8.27;4.60;;;16.30;99.90;;;;;;5136864;27;20204;-68
2022/04/07 08:56:55;;;;;;;5.80;4.00;;;16.40;99.90;;;;;;5137009;27;20234;-67
2022/04/07 08:59:22;;;;;;;6.27;3.83;;;16.40;99.90;;;;;;5136979;27;20575;-67
2022/04/07 09:01:49;;;;;;;8.30;4.03;;;16.50;99.90;;;;;;5136468;27;20265;-68
2022/04/07 09:04:16;;;;;;;7.50;4.00;;;16.50;99.90;;;;;;5137018;27;20233;-67
2022/04/07 09:06:43;;;;;;;6.73;3.73;;;16.60;99.90;;;;;;5136547;27;20242;-66
2022/04/07 09:09:14;;;;;;;6.17;3.70;;;16.60;99.90;;;;;;5136831;27;20661;-67
2022/04/07 09:11:41;;;;;;;5.47;4.00;;;16.70;99.90;;;;;;5136816;27;20562;-67
2022/04/07 09:14:10;;;;;;;5.80;3.70;;;16.70;99.90;;;;;;5136887;27;20230;-67
2022/04/07 09:16:38;;;;;;;12.97;4.10;;;16.80;99.90;;;;;;5136740;27;20199;-67
2022/04/07 09:19:06;;;;;;;6.23;4.00;;;16.80;99.90;;;;;;5136578;27;20211;-68
2022/04/07 09:21:34;;;;;;;6.67;3.67;;;16.90;99.90;;;;;;5136249;27;20265;-66
2022/04/07 09:24:05;;;;;;;4.50;3.03;;;17.00;99.90;;;;;;5136270;27;20565;-67
2022/04/07 09:26:35;;;;;;;5.90;3.83;;;17.00;99.90;;;;;;5136286;27;20213;-67
2022/04/07 09:29:08;;;;;;;4.93;3.60;;;17.10;99.90;;;;;;5136506;27;20234;-67
2022/04/07 09:31:39;;;;;;;6.30;3.60;;;17.20;99.90;;;;;;5136065;27;20278;-67
2022/04/07 09:34:06;;;;;;;6.30;3.40;;;17.20;99.90;;;;;;5136363;27;20230;-66
2022/04/07 09:36:33;;;;;;;5.50;3.27;;;17.20;99.90;;;;;;5135995;27;20303;-66
2022/04/07 09:39:00;;;;;;;7.07;3.50;;;17.30;99.90;;;;;;5135807;27;20248;-67
2022/04/07 09:41:29;;;;;;;5.63;3.53;;;17.40;99.90;;;;;;5135918;27;20203;-67
2022/04/07 09:43:59;;;;;;;4.80;3.20;;;17.40;99.90;;;;;;5135788;27;20293;-67
2022/04/07 09:46:28;;;;;;;6.13;3.50;;;17.40;99.90;;;;;;5136136;27;20242;-66
2022/04/07 09:49:04;;;;;;;5.37;3.40;;;17.50;99.90;;;;;;5135974;27;20248;-66
2022/04/07 09:51:40;;;;;;;4.27;2.90;;;17.50;99.90;;;;;;5136008;27;20195;-68
2022/04/07 09:54:12;;;;;;;6.10;3.23;;;17.60;99.90;;;;;;5135647;27;20195;-66
2022/04/07 09:56:39;;;;;;;7.40;3.00;;;17.70;99.90;;;;;;5135631;27;20224;-67
2022/04/07 09:59:08;;;;;;;9.63;3.53;;;17.70;99.90;;;;;;5135967;27;20706;-66
2022/04/07 10:01:38;;;;;;;6.07;3.30;;;17.80;99.90;;;;;;5135781;27;20238;-67
2022/04/07 10:04:06;;;;;;;6.33;3.27;;;17.80;99.90;;;;;;5134784;27;20201;-66
2022/04/07 10:06:33;;;;;;;10.17;3.57;;;17.90;99.90;;;;;;5136111;27;20626;-66
2022/04/07 10:09:02;;;;;;;7.10;4.00;;;17.90;99.90;;;;;;5135720;27;20564;-67
2022/04/07 10:11:31;;;;;;;7.40;4.17;;;18.00;99.90;;;;;;5135708;27;20202;-66
2022/04/07 10:14:01;;;;;;;6.37;4.00;;;18.00;99.90;;;;;;5135419;27;20427;-67
2022/04/07 10:16:30;;;;;;;6.80;3.90;;;18.10;99.90;;;;;;5135662;27;20202;-67
2022/04/07 10:19:01;;;;;;;7.40;4.57;;;18.10;99.90;;;;;;5135147;27;20660;-68
2022/04/07 10:21:45;;;;;;;7.67;4.80;;;18.20;99.90;;;;;;5135605;27;20618;-67
2022/04/07 10:24:30;;;;;;;7.77;5.20;;;18.30;99.90;;;;;;5135402;27;20191;-66
2022/04/07 10:27:00;;;;;;;11.60;6.27;;;18.30;99.90;;;;;;5135339;27;20693;-66
2022/04/07 10:29:30;;;;;;;7.73;5.40;;;18.20;99.90;;;;;;5135680;27;20571;-67
2022/04/07 10:32:21;;;;;;;8.80;6.07;;;18.20;99.90;;;;;;5135212;27;20210;-67
2022/04/07 10:34:57;;;;;;;8.53;6.17;;;18.20;99.90;;;;;;5134584;27;20211;-68
2022/04/07 10:37:43;;;;;;;10.57;6.20;;;18.20;99.90;;;;;;5135239;27;20550;-67
2022/04/07 10:40:33;;;;;;;9.70;5.90;;;18.30;99.90;;;;;;5135082;27;20208;-66
2022/04/07 10:43:21;;;;;;;10.97;6.57;;;18.30;99.90;;;;;;5134760;27;20209;-67
2022/04/07 10:45:50;;;;;;;10.67;7.00;;;18.30;99.90;;;;;;5135208;27;20511;-67
2022/04/07 10:48:26;;;;;;;13.87;7.03;;;18.40;99.90;;;;;;5135113;27;20292;-67
2022/04/07 10:50:55;;;;;;;10.53;6.33;;;18.40;99.90;;;;;;5134718;27;20226;-68
2022/04/07 10:53:25;;;;;;;9.20;6.30;;;18.40;99.90;;;;;;5134879;27;20232;-67
2022/04/07 10:56:09;;;;;;;10.93;6.97;;;18.40;99.90;;;;;;5134528;27;20575;-67
2022/04/07 10:58:45;;;;;;;12.57;6.20;;;18.50;99.90;;;;;;5134282;27;20280;-67
2022/04/07 11:01:50;;;;;;;15.17;6.60;;;18.50;99.90;;;;;;5134504;27;20232;-67
2022/04/07 11:04:36;;;;;;;10.50;6.67;;;18.50;99.90;;;;;;5134522;27;20190;-66
2022/04/07 11:07:20;;;;;;;9.40;6.50;;;18.60;99.90;;;;;;5134773;27;20659;-66
2022/04/07 11:10:05;;;;;;;9.23;6.30;;;18.60;99.90;;;;;;5134446;27;20210;-66
2022/04/07 11:12:33;;;;;;;11.80;6.40;;;18.60;99.70;;;;;;5134373;27;20181;-68
2022/04/07 11:15:39;;;;;;;9.20;6.23;;;18.60;99.60;;;;;;5133738;27;20244;-67
2022/04/07 11:18:26;;;;;;;9.73;6.40;;;18.60;99.30;;;;;;5134481;27;20276;-66
2022/04/07 11:21:09;;;;;;;11.93;6.77;;;18.60;98.60;;;;;;5134492;27;20215;-66
2022/04/07 11:23:41;;;;;;;11.03;6.90;;;18.60;98.90;;;;;;5133781;27;20676;-67
2022/04/07 11:26:18;;;;;;;9.37;5.60;;;18.60;99.10;;;;;;5134065;27;20202;-67
2022/04/07 11:29:00;;;;;;;10.17;5.10;;;18.70;99.30;;;;;;5134065;27;20613;-67
2022/04/07 11:31:45;;;;;;;8.43;5.30;;;18.70;97.60;;;;;;5134100;27;20644;-67
2022/04/07 11:35:00;;;;;;;7.13;5.37;;;18.80;97.20;;;;;;5134033;27;20197;-65
2022/04/07 11:37:30;;;;;;;7.80;4.97;;;18.80;96.80;;;;;;5133883;27;20226;-66
2022/04/07 11:39:57;;;;;;;6.87;4.50;;;18.80;96.20;;;;;;5134036;27;20289;-66
2022/04/07 11:42:24;;;;;;;7.33;4.57;;;18.80;96.00;;;;;;5133371;27;20258;-68
2022/04/07 11:44:58;;;;;;;8.03;5.27;;;18.80;96.10;;;;;;5133340;27;20250;-66
2022/04/07 11:47:27;;;;;;;8.37;4.83;;;18.90;96.20;;;;;;5133706;27;20195;-68
2022/04/07 11:49:54;;;;;;;8.10;4.93;;;18.90;96.40;;;;;;5133485;27;20215;-67
2022/04/07 11:52:26;;;;;;;7.50;4.70;;;18.90;96.60;;;;;;5133547;27;20234;-67
2022/04/07 11:54:56;;;;;;;6.33;4.50;;;19.00;96.40;;;;;;5133649;27;20240;-67
2022/04/07 11:57:25;;;;;;;6.30;4.50;;;19.00;95.80;;;;;;5133573;27;20273;-67
2022/04/07 11:59:54;;;;;;;9.03;5.00;;;19.10;96.10;;;;;;5133365;27;20237;-67
2022/04/07 12:02:22;;;;;;;5.77;4.23;;;19.10;95.50;;;;;;5133377;27;20213;-66
2022/04/07 12:04:55;;;;;;;7.20;4.33;;;19.10;95.30;;;;;;5133466;27;20217;-66
2022/04/07 12:07:23;;;;;;;7.67;4.20;;;19.10;95.10;;;;;;5133666;27;20623;-67
2022/04/07 12:09:50;;;;;;;7.07;4.63;;;19.10;95.10;;;;;;5132947;27;20212;-67
2022/04/07 12:12:20;;;;;;;4.90;3.93;;;19.10;94.70;;;;;;5133273;27;20205;-67
2022/04/07 12:14:47;;;;;;;6.27;3.80;;;19.00;94.20;;;;;;5133031;27;20248;-66
2022/04/07 12:17:14;;;;;;;6.33;3.70;;;19.00;93.70;;;;;;5132902;27;20241;-67
2022/04/07 12:19:45;;;;;;;7.33;3.90;;;19.00;93.50;;;;;;5133115;27;20223;-69
2022/04/07 12:22:13;;;;;;;7.37;3.60;;;19.00;93.30;;;;;;5133170;27;20203;-68
2022/04/07 12:24:57;;;;;;;4.70;3.30;;;19.00;93.60;;;;;;5133074;27;20239;-68
2022/04/07 12:27:31;;;;;;;6.77;3.80;;;19.00;93.30;;;;;;5132602;27;20673;-67
2022/04/07 12:29:59;;;;;;;4.37;3.43;;;19.00;92.90;;;;;;5133132;27;20615;-67
2022/04/07 12:32:27;;;;;;;5.50;3.53;;;19.00;93.00;;;;;;5132559;27;20224;-67
2022/04/07 12:34:56;;;;;;;7.90;4.47;;;19.00;93.20;;;;;;5132875;27;20580;-67
2022/04/07 12:37:29;;;;;;;8.43;5.53;;;19.00;93.30;;;;;;5133015;27;20186;-67
2022/04/07 12:39:56;;;;;;;6.23;3.83;;;19.00;93.30;;;;;;5132606;27;20198;-68
2022/04/07 12:42:23;;;;;;;5.57;3.53;;;19.00;92.80;;;;;;5132829;27;20589;-66
2022/04/07 12:44:51;;;;;;;5.80;3.90;;;19.10;92.80;;;;;;5133118;28;20257;-67
2022/04/07 12:47:25;;;;;;;4.27;3.50;;;19.20;92.40;;;;;;5132704;28;20634;-68
2022/04/07 12:49:56;;;;;;;8.70;3.93;;;19.20;92.20;;;;;;5132739;27;20186;-68